createdAt,value
2022-11-22T00:01:33.553Z,2.11
2022-11-22T00:04:01.537Z,2.30
2022-11-22T00:06:29.494Z,2.27
2022-11-22T00:08:57.384Z,2.17
2022-11-22T00:11:25.287Z,2.08
2022-11-22T00:13:53.220Z,1.94
2022-11-22T00:16:21.156Z,1.79
2022-11-22T00:18:49.060Z,1.61
2022-11-22T00:21:17.073Z,1.47
2022-11-22T00:23:44.998Z,1.36
2022-11-22T00:26:12.933Z,1.26
2022-11-22T00:28:40.950Z,1.14
2022-11-22T00:31:08.948Z,1.01
2022-11-22T00:33:36.843Z,0.88
2022-11-22T00:36:05.011Z,0.82
2022-11-22T00:38:33.073Z,0.79
2022-11-22T00:41:01.017Z,0.71
2022-11-22T00:43:28.959Z,0.61
2022-11-22T00:45:56.937Z,0.55
2022-11-22T00:48:24.870Z,0.47
2022-11-22T00:50:52.889Z,0.32
2022-11-22T00:53:20.781Z,0.18
2022-11-22T00:55:49.250Z,0.08
2022-11-22T00:58:17.342Z,-0.01
2022-11-22T01:00:45.383Z,-0.12
2022-11-22T01:03:13.833Z,-0.17
2022-11-22T01:05:41.803Z,-0.24
2022-11-22T01:08:09.831Z,-0.29
2022-11-22T01:10:38.169Z,-0.37
2022-11-22T01:13:06.370Z,-0.41
2022-11-22T01:15:34.282Z,-0.43
2022-11-22T01:18:02.248Z,-0.40
2022-11-22T01:20:30.960Z,-0.42
2022-11-22T01:22:58.901Z,-0.52
2022-11-22T01:25:27.248Z,-0.60
2022-11-22T01:27:55.351Z,-0.66
2022-11-22T01:30:23.271Z,-0.70
2022-11-22T01:32:52.597Z,-0.68
2022-11-22T01:35:20.470Z,-0.67
2022-11-22T01:37:48.400Z,-0.69
2022-11-22T01:40:16.357Z,-0.72
2022-11-22T01:42:56.974Z,-0.79
2022-11-22T01:45:30.934Z,-0.79
2022-11-22T01:48:01.111Z,-0.78
2022-11-22T01:50:33.108Z,-0.77
2022-11-22T01:53:07.171Z,-0.73
2022-11-22T01:55:36.068Z,-0.69
2022-11-22T01:58:04.486Z,-0.67
2022-11-22T02:00:32.463Z,-0.66
2022-11-22T02:03:04.008Z,-0.67
2022-11-22T02:05:35.442Z,-0.65
2022-11-22T02:12:36.394Z,-0.72
2022-11-22T02:15:04.720Z,-0.77
2022-11-22T02:17:32.623Z,-0.84
2022-11-22T02:20:00.563Z,-0.87
2022-11-22T02:22:40.579Z,-0.93
2022-11-22T02:25:33.125Z,-0.98
2022-11-22T02:28:04.530Z,-1.00
2022-11-22T02:30:32.868Z,-1.00
2022-11-22T02:33:00.816Z,-1.02
2022-11-22T02:35:30.144Z,-1.05
2022-11-22T02:38:21.212Z,-1.10
2022-11-22T02:41:11.670Z,-1.18
2022-11-22T02:43:44.320Z,-1.21
2022-11-22T02:46:21.351Z,-1.20
2022-11-22T02:48:50.065Z,-1.21
2022-11-22T02:51:20.173Z,-1.23
2022-11-22T02:53:50.128Z,-1.28
2022-11-22T02:56:18.640Z,-1.33
2022-11-22T02:58:46.639Z,-1.37
2022-11-22T03:01:14.650Z,-1.41
2022-11-22T03:03:42.670Z,-1.43
2022-11-22T03:06:10.621Z,-1.42
2022-11-22T03:08:38.596Z,-1.43
2022-11-22T03:11:06.540Z,-1.48
2022-11-22T03:13:34.420Z,-1.57
2022-11-22T03:16:02.368Z,-1.70
2022-11-22T03:18:30.304Z,-1.75
2022-11-22T03:21:02.860Z,-1.76
2022-11-22T03:23:31.219Z,-1.76
2022-11-22T03:25:59.349Z,-1.80
2022-11-22T03:28:27.248Z,-1.85
2022-11-22T03:30:55.235Z,-1.86
2022-11-22T03:33:23.152Z,-1.89
2022-11-22T03:35:51.049Z,-1.91
2022-11-22T03:38:18.963Z,-1.86
2022-11-22T03:40:47.099Z,-1.80
2022-11-22T03:43:15.039Z,-1.75
2022-11-22T03:45:47.112Z,-1.72
2022-11-22T03:48:15.329Z,-1.66
2022-11-22T03:50:43.373Z,-1.58
2022-11-22T03:53:11.892Z,-1.51
2022-11-22T03:55:40.391Z,-1.48
2022-11-22T03:58:08.601Z,-1.48
2022-11-22T04:00:36.584Z,-1.48
2022-11-22T04:03:04.511Z,-1.45
2022-11-22T04:05:32.443Z,-1.40
2022-11-22T04:08:00.418Z,-1.29
2022-11-22T04:10:28.545Z,-1.17
2022-11-22T04:12:58.385Z,-1.05
2022-11-22T04:15:27.125Z,-0.93
2022-11-22T04:17:55.189Z,-0.82
2022-11-22T04:20:47.633Z,-0.73
2022-11-22T04:23:21.588Z,-0.66
2022-11-22T04:25:51.856Z,-0.61
2022-11-22T04:28:35.200Z,-0.58
2022-11-22T04:32:23.868Z,-0.54
2022-11-22T04:34:51.785Z,-0.48
2022-11-22T04:37:19.713Z,-0.41
2022-11-22T04:39:47.557Z,-0.34
2022-11-22T04:42:33.784Z,-0.30
2022-11-22T04:45:01.972Z,-0.26
2022-11-22T04:47:50.432Z,-0.24
2022-11-22T04:50:37.154Z,-0.22
2022-11-22T04:53:05.156Z,-0.17
2022-11-22T04:55:33.093Z,-0.15
2022-11-22T04:58:01.488Z,-0.13
2022-11-22T05:00:30.238Z,-0.11
2022-11-22T05:02:58.893Z,-0.12
2022-11-22T05:05:27.211Z,-0.13
2022-11-22T05:08:48.193Z,-0.10
2022-11-22T05:11:16.133Z,-0.03
2022-11-22T05:13:44.148Z,-0.01
2022-11-22T05:16:15.305Z,-0.03
2022-11-22T05:18:43.588Z,-0.06
2022-11-22T05:21:14.188Z,-0.08
2022-11-22T05:23:57.211Z,-0.09
2022-11-22T05:26:31.558Z,-0.13
2022-11-22T05:29:04.883Z,-0.16
2022-11-22T05:31:34.538Z,-0.17
2022-11-22T05:34:02.561Z,-0.20
2022-11-22T05:36:33.131Z,-0.19
2022-11-22T05:39:02.031Z,-0.15
2022-11-22T05:41:30.045Z,-0.09
2022-11-22T05:43:58.157Z,-0.01
2022-11-22T05:46:28.751Z,0.09
2022-11-22T05:48:58.494Z,0.17
2022-11-22T05:51:34.741Z,0.20
2022-11-22T05:54:03.453Z,0.15
2022-11-22T05:56:31.439Z,0.10
2022-11-22T05:58:59.392Z,0.06
2022-11-22T06:01:27.425Z,0.02
2022-11-22T06:03:55.527Z,0.00
2022-11-22T06:06:23.460Z,-0.01
2022-11-22T06:08:51.752Z,-0.01
2022-11-22T06:11:25.338Z,-0.02
2022-11-22T06:13:59.601Z,-0.04
2022-11-22T06:16:27.594Z,-0.05
2022-11-22T06:18:56.277Z,-0.08
2022-11-22T06:21:25.739Z,-0.08
2022-11-22T06:23:54.948Z,-0.09
2022-11-22T06:26:24.377Z,-0.10
2022-11-22T06:28:53.721Z,-0.14
2022-11-22T06:31:24.076Z,-0.15
2022-11-22T06:33:54.575Z,-0.17
2022-11-22T06:36:25.391Z,-0.15
2022-11-22T06:38:53.494Z,-0.10
2022-11-22T06:41:24.501Z,-0.06
2022-11-22T06:43:53.945Z,-0.02
2022-11-22T06:46:23.606Z,0.00
2022-11-22T06:48:52.401Z,0.01
2022-11-22T06:51:23.540Z,0.02
2022-11-22T06:53:52.422Z,0.06
2022-11-22T06:56:27.069Z,0.10
2022-11-22T06:58:55.711Z,0.16
2022-11-22T07:01:29.202Z,0.20
2022-11-22T07:03:58.683Z,0.23
2022-11-22T07:06:31.918Z,0.24
2022-11-22T07:09:01.603Z,0.24
2022-11-22T07:11:31.326Z,0.26
2022-11-22T07:14:07.130Z,0.29
2022-11-22T07:16:37.575Z,0.32
2022-11-22T07:19:06.698Z,0.34
2022-11-22T07:21:35.045Z,0.36
2022-11-22T07:24:04.929Z,0.39
2022-11-22T07:26:32.863Z,0.45
2022-11-22T07:29:00.797Z,0.52
2022-11-22T07:31:28.850Z,0.57
2022-11-22T07:34:01.044Z,0.63
2022-11-22T07:36:30.419Z,0.68
2022-11-22T07:38:58.608Z,0.75
2022-11-22T07:41:26.700Z,0.84
2022-11-22T07:43:54.835Z,0.94
2022-11-22T07:46:34.219Z,1.03
2022-11-22T07:49:02.803Z,1.11
2022-11-22T07:51:31.132Z,1.17
2022-11-22T07:53:59.166Z,1.22
2022-11-22T07:56:27.256Z,1.29
2022-11-22T07:58:55.154Z,1.37
2022-11-22T08:01:23.816Z,1.46
2022-11-22T08:03:51.854Z,1.53
2022-11-22T08:06:19.763Z,1.60
2022-11-22T08:08:47.755Z,1.65
2022-11-22T08:11:15.852Z,1.73
2022-11-22T08:13:44.707Z,1.84
2022-11-22T08:16:15.544Z,1.94
2022-11-22T08:18:49.107Z,2.01
2022-11-22T08:21:19.101Z,2.07
2022-11-22T08:23:48.061Z,2.14
2022-11-22T08:26:17.606Z,2.19
2022-11-22T08:28:45.558Z,2.23
2022-11-22T08:31:18.086Z,2.29
2022-11-22T08:33:46.586Z,2.37
2022-11-22T08:36:14.656Z,2.46
2022-11-22T08:38:42.749Z,2.52
2022-11-22T08:41:11.694Z,2.60
2022-11-22T08:43:39.861Z,2.67
2022-11-22T08:46:07.834Z,2.75
2022-11-22T08:48:36.947Z,2.85
2022-11-22T08:51:08.307Z,2.94
2022-11-22T08:53:41.584Z,3.00
2022-11-22T08:56:13.262Z,3.02
2022-11-22T08:58:41.958Z,3.08
2022-11-22T09:01:13.596Z,3.13
2022-11-22T09:03:42.762Z,3.21
2022-11-22T09:09:43.381Z,3.37
2022-11-22T09:11:49.703Z,3.43
2022-11-22T09:14:17.643Z,3.46
2022-11-22T09:16:45.718Z,3.47
2022-11-22T09:19:13.804Z,3.57
2022-11-22T09:21:41.727Z,3.70
2022-11-22T09:24:09.638Z,3.80
2022-11-22T09:26:37.632Z,3.87
2022-11-22T09:29:05.528Z,3.93
2022-11-22T09:31:33.491Z,3.99
2022-11-22T09:34:01.485Z,4.03
2022-11-22T09:36:29.607Z,4.09
2022-11-22T09:38:57.685Z,4.19
2022-11-22T09:41:46.793Z,4.30
2022-11-22T09:44:36.273Z,4.37
2022-11-22T09:47:15.477Z,4.46
2022-11-22T09:50:10.856Z,4.54
2022-11-22T09:52:46.731Z,4.55
2022-11-22T09:55:24.210Z,4.62
2022-11-22T09:58:03.848Z,4.65
2022-11-22T10:00:32.246Z,4.67
2022-11-22T10:03:05.975Z,4.70
2022-11-22T10:05:50.158Z,4.76
2022-11-22T10:08:35.431Z,4.83
2022-11-22T10:11:13.664Z,4.89
2022-11-22T10:13:50.531Z,4.93
2022-11-22T10:16:26.433Z,5.01
2022-11-22T10:19:10.441Z,5.12
2022-11-22T10:21:38.379Z,5.23
2022-11-22T10:24:06.895Z,5.30
2022-11-22T10:26:37.375Z,5.34
2022-11-22T10:29:17.607Z,5.41
2022-11-22T10:32:10.262Z,5.50
2022-11-22T10:34:41.198Z,5.58
2022-11-22T10:37:44.580Z,5.66
2022-11-22T10:40:15.229Z,5.78
2022-11-22T10:42:52.244Z,5.90
2022-11-22T10:46:11.171Z,6.08
2022-11-22T10:48:50.734Z,6.25
2022-11-22T10:51:44.339Z,6.34
2022-11-22T10:54:52.800Z,6.45
2022-11-22T10:57:46.870Z,6.55
2022-11-22T11:00:22.854Z,6.69
2022-11-22T11:03:13.177Z,6.81
2022-11-22T11:09:54.939Z,8.20
2022-11-22T11:11:46.591Z,9.62
2022-11-22T11:14:35.948Z,10.32
2022-11-22T11:17:06.068Z,10.59
2022-11-22T11:19:38.920Z,10.49
2022-11-22T11:22:09.592Z,10.62
2022-11-22T11:24:40.721Z,10.98
2022-11-22T11:27:11.538Z,11.80
2022-11-22T11:29:39.420Z,12.65
2022-11-22T11:32:21.080Z,13.37
2022-11-22T11:34:57.751Z,13.78
2022-11-22T11:37:32.974Z,14.12
2022-11-22T11:40:00.994Z,14.40
2022-11-22T11:42:35.779Z,14.54
2022-11-22T11:45:18.987Z,14.65
2022-11-22T11:47:46.893Z,14.96
2022-11-22T11:50:24.527Z,15.06
2022-11-22T11:53:03.330Z,15.23
2022-11-22T11:55:35.534Z,15.33
2022-11-22T11:58:17.803Z,15.33
2022-11-22T12:00:46.046Z,15.58
2022-11-22T12:03:19.083Z,15.79
2022-11-22T12:05:47.124Z,15.88
2022-11-22T12:08:32.264Z,15.94
2022-11-22T12:11:06.526Z,15.87
2022-11-22T12:14:12.377Z,15.91
2022-11-22T12:16:40.030Z,16.02
2022-11-22T12:19:25.248Z,15.93
2022-11-22T12:22:03.891Z,16.00
2022-11-22T12:25:16.953Z,15.59
2022-11-22T12:27:42.449Z,15.32
2022-11-22T12:30:14.556Z,15.49
2022-11-22T12:32:59.425Z,15.64
2022-11-22T12:35:29.899Z,14.82
2022-11-22T12:38:11.124Z,13.02
2022-11-22T12:40:44.471Z,11.51
2022-11-22T12:43:24.711Z,10.49
2022-11-22T12:45:57.969Z,9.62
2022-11-22T12:48:34.788Z,8.93
2022-11-22T12:51:27.254Z,8.32
2022-11-22T12:54:02.903Z,7.70
2022-11-22T12:56:56.028Z,7.28
2022-11-22T12:59:37.464Z,6.90
2022-11-22T13:02:24.037Z,6.59
2022-11-22T13:05:01.831Z,6.29
2022-11-22T13:07:36.091Z,6.08
2022-11-22T13:10:20.183Z,5.87
2022-11-22T13:12:49.459Z,5.66
2022-11-22T13:15:27.297Z,5.47
2022-11-22T13:17:55.911Z,5.36
2022-11-22T13:20:29.276Z,5.28
2022-11-22T13:23:28.721Z,5.18
2022-11-22T13:26:15.155Z,5.05
2022-11-22T13:28:44.865Z,4.94
2022-11-22T13:31:17.248Z,4.84
2022-11-22T13:34:00.279Z,4.73
2022-11-22T13:36:28.362Z,4.62
2022-11-22T13:39:02.591Z,4.60
2022-11-22T13:41:38.430Z,5.12
2022-11-22T13:44:36.325Z,5.09
2022-11-22T13:47:25.123Z,4.89
2022-11-22T13:49:54.097Z,4.71
2022-11-22T13:52:22.315Z,4.59
2022-11-22T13:54:52.749Z,4.49
2022-11-22T13:57:36.094Z,4.40
2022-11-22T14:00:16.364Z,4.34
2022-11-22T14:03:29.416Z,4.33
2022-11-22T14:05:58.317Z,4.36
2022-11-22T14:08:42.751Z,4.38
2022-11-22T14:11:10.601Z,4.36
2022-11-22T14:13:52.423Z,4.35
2022-11-22T14:16:40.015Z,4.35
2022-11-22T14:19:22.908Z,4.36
2022-11-22T14:22:12.576Z,4.40
2022-11-22T14:24:58.741Z,4.46
2022-11-22T14:27:45.454Z,4.50
2022-11-22T14:30:18.680Z,4.51
2022-11-22T14:33:00.389Z,4.51
2022-11-22T14:35:34.434Z,4.48
2022-11-22T14:38:28.541Z,4.44
2022-11-22T14:41:27.821Z,4.43
2022-11-22T14:44:02.641Z,4.45
2022-11-22T14:47:02.753Z,4.47
2022-11-22T14:49:47.891Z,4.45
2022-11-22T14:52:23.496Z,4.43
2022-11-22T14:55:01.056Z,4.38
2022-11-22T14:57:32.803Z,4.34
2022-11-22T15:00:19.315Z,4.30
2022-11-22T15:03:25.077Z,4.31
2022-11-22T15:09:10.958Z,4.36
2022-11-22T15:09:39.340Z,4.37
2022-11-22T15:12:18.045Z,4.34
2022-11-22T15:57:28.320Z,4.49
2022-11-22T15:59:57.598Z,4.48
2022-11-22T16:02:30.010Z,4.49
2022-11-22T16:06:10.354Z,4.54
2022-11-22T16:07:57.452Z,4.54
2022-11-22T16:10:37.750Z,4.55
2022-11-22T16:13:24.402Z,4.55
2022-11-22T16:16:10.688Z,4.55
2022-11-22T16:18:40.271Z,4.54
2022-11-22T16:21:11.471Z,4.53
2022-11-22T16:23:40.990Z,4.55
2022-11-22T16:26:21.897Z,4.60
2022-11-22T16:28:51.596Z,4.62
2022-11-22T16:31:29.029Z,4.61
2022-11-22T16:33:58.367Z,4.61
2022-11-22T16:36:29.693Z,4.61
2022-11-22T16:39:00.867Z,4.62
2022-11-22T16:41:29.603Z,4.65
2022-11-22T16:44:04.450Z,4.66
2022-11-22T16:46:32.461Z,4.66
2022-11-22T16:49:00.875Z,4.64
2022-11-22T16:51:30.166Z,4.63
2022-11-22T16:54:00.733Z,4.64
2022-11-22T16:56:32.061Z,4.65
2022-11-22T16:59:00.125Z,4.67
2022-11-22T17:01:33.259Z,4.67
2022-11-22T17:04:02.895Z,4.66
2022-11-22T17:06:32.022Z,4.65
2022-11-22T17:09:01.010Z,4.63
2022-11-22T17:11:32.418Z,4.62
2022-11-22T17:14:01.087Z,4.63
2022-11-22T17:16:29.344Z,4.63
2022-11-22T17:18:57.260Z,4.60
2022-11-22T17:21:37.265Z,4.54
2022-11-22T17:24:13.295Z,4.51
2022-11-22T17:26:41.232Z,4.50
2022-11-22T17:29:18.402Z,4.52
2022-11-22T17:31:57.154Z,4.50
2022-11-22T17:34:25.141Z,4.47
2022-11-22T17:36:53.146Z,4.44
2022-11-22T17:39:21.108Z,4.40
2022-11-22T17:41:49.567Z,4.39
2022-11-22T17:44:18.368Z,4.40
2022-11-22T17:51:26.150Z,4.29
2022-11-22T17:53:55.008Z,4.26
2022-11-22T17:56:22.853Z,4.22
2022-11-22T17:58:50.974Z,4.20
2022-11-22T18:01:22.877Z,4.20
2022-11-22T18:03:51.638Z,4.21
2022-11-22T18:06:23.519Z,4.20
2022-11-22T18:08:54.093Z,4.19
2022-11-22T18:11:22.032Z,4.14
2022-11-22T18:13:49.918Z,4.10
2022-11-22T18:16:18.616Z,4.04
2022-11-22T18:19:02.031Z,3.99
2022-11-22T18:21:32.505Z,3.97
2022-11-22T18:24:01.440Z,3.97
2022-11-22T18:26:44.914Z,3.96
2022-11-22T18:32:03.027Z,3.88
2022-11-22T18:34:33.692Z,3.82
2022-11-22T18:37:04.574Z,3.78
2022-11-22T18:39:36.582Z,3.76
2022-11-22T18:42:07.123Z,3.74
2022-11-22T18:44:35.239Z,3.75
2022-11-22T18:47:05.526Z,3.75
2022-11-22T18:49:33.970Z,3.72
2022-11-22T18:52:04.928Z,3.67
2022-11-22T18:54:35.996Z,3.60
2022-11-22T18:57:04.147Z,3.54
2022-11-22T18:59:32.457Z,3.52
2022-11-22T19:02:00.448Z,3.53
2022-11-22T19:04:28.942Z,3.55
2022-11-22T19:07:04.512Z,3.55
2022-11-22T19:09:35.661Z,3.53
2022-11-22T19:12:08.609Z,3.50
2022-11-22T19:14:36.620Z,3.47
2022-11-22T19:17:05.488Z,3.47
2022-11-22T19:19:33.497Z,3.49
2022-11-22T19:22:02.594Z,3.50
2022-11-22T19:24:33.891Z,3.48
2022-11-22T19:27:04.765Z,3.43
2022-11-22T19:29:33.226Z,3.37
2022-11-22T19:32:01.671Z,3.31
2022-11-22T19:34:30.040Z,3.23
2022-11-22T19:37:00.381Z,3.18
2022-11-22T19:39:28.693Z,3.16
2022-11-22T19:41:56.915Z,3.15
2022-11-22T19:44:24.889Z,3.11
2022-11-22T19:46:52.815Z,3.02
2022-11-22T19:49:20.737Z,2.93
2022-11-22T19:51:48.770Z,2.83
2022-11-22T19:54:17.747Z,2.75
2022-11-22T19:56:45.783Z,2.66
2022-11-22T19:59:16.174Z,2.60
2022-11-22T20:01:48.742Z,2.56
2022-11-22T20:04:16.893Z,2.51
2022-11-22T20:06:50.382Z,2.42
2022-11-22T20:09:20.444Z,2.30
2022-11-22T20:11:48.418Z,2.17
2022-11-22T20:14:17.133Z,2.07
2022-11-22T20:16:45.183Z,2.00
2022-11-22T20:19:13.166Z,1.91
2022-11-22T20:21:41.517Z,1.83
2022-11-22T20:24:09.842Z,1.74
2022-11-22T20:26:37.838Z,1.67
2022-11-22T20:29:08.240Z,1.59
2022-11-22T20:31:37.985Z,1.53
2022-11-22T20:34:06.111Z,1.50
2022-11-22T20:36:35.299Z,1.47
2022-11-22T20:39:09.834Z,1.48
2022-11-22T20:41:40.137Z,1.46
2022-11-22T20:44:13.119Z,1.42
2022-11-22T20:46:41.722Z,1.38
2022-11-22T20:49:09.735Z,1.35
2022-11-22T20:51:39.952Z,1.35
2022-11-22T20:54:08.996Z,1.34
2022-11-22T20:56:38.136Z,1.33
2022-11-22T20:59:06.205Z,1.31
2022-11-22T21:01:34.379Z,1.21
2022-11-22T21:04:05.776Z,1.13
2022-11-22T21:06:36.641Z,1.11
2022-11-22T21:09:04.851Z,1.13
2022-11-22T21:11:32.828Z,1.13
2022-11-22T21:14:00.883Z,1.12
2022-11-22T21:16:29.893Z,1.12
2022-11-22T21:19:04.884Z,1.11
2022-11-22T21:21:35.895Z,1.07
2022-11-22T21:24:05.543Z,1.01
2022-11-22T21:26:35.814Z,0.98
2022-11-22T21:29:05.223Z,0.97
2022-11-22T21:31:33.158Z,0.93
2022-11-22T21:34:01.120Z,0.90
2022-11-22T21:36:29.075Z,0.84
2022-11-22T21:38:56.974Z,0.78
2022-11-22T21:41:41.209Z,0.70
2022-11-22T21:46:53.306Z,0.66
2022-11-22T21:49:21.537Z,0.68
2022-11-22T21:51:49.583Z,0.72
2022-11-22T21:54:17.733Z,0.74
2022-11-22T21:56:45.609Z,0.74
2022-11-22T21:59:13.636Z,0.73
2022-11-22T22:01:41.564Z,0.72
2022-11-22T22:04:09.585Z,0.72
2022-11-22T22:06:37.467Z,0.76
2022-11-22T22:09:07.502Z,0.79
2022-11-22T22:11:35.418Z,0.82
2022-11-22T22:14:03.323Z,0.81
2022-11-22T22:16:31.260Z,0.80
2022-11-22T22:19:03.381Z,0.79
2022-11-22T22:21:33.730Z,0.75
2022-11-22T22:24:06.742Z,0.73
2022-11-22T22:26:34.623Z,0.71
2022-11-22T22:29:02.627Z,0.68
2022-11-22T22:31:33.838Z,0.66
2022-11-22T22:34:03.342Z,0.68
2022-11-22T22:36:31.310Z,0.70
2022-11-22T22:38:59.223Z,0.69
2022-11-22T22:41:27.178Z,0.66
2022-11-22T22:43:57.972Z,0.63
2022-11-22T22:46:26.078Z,0.60
2022-11-22T22:48:57.123Z,0.58
2022-11-22T22:51:32.950Z,0.57
2022-11-22T22:54:04.281Z,0.55
2022-11-22T22:56:32.458Z,0.55
2022-11-22T22:59:02.258Z,0.54
2022-11-22T23:01:31.469Z,0.56
2022-11-22T23:04:04.589Z,0.60
2022-11-22T23:06:37.335Z,0.62
2022-11-22T23:13:06.038Z,0.57
2022-11-22T23:15:57.422Z,0.53
2022-11-22T23:18:36.541Z,0.49
2022-11-22T23:21:16.035Z,0.45
2022-11-22T23:24:08.904Z,0.44
2022-11-22T23:26:42.485Z,0.42
2022-11-22T23:29:17.006Z,0.40
2022-11-22T23:31:50.407Z,0.38
2022-11-22T23:34:23.046Z,0.36
2022-11-22T23:36:50.955Z,0.33
2022-11-22T23:39:25.014Z,0.28
2022-11-22T23:42:00.547Z,0.26
2022-11-22T23:44:29.408Z,0.25
2022-11-22T23:46:57.289Z,0.27
2022-11-22T23:49:25.208Z,0.28
2022-11-22T23:51:53.098Z,0.28
2022-11-22T23:54:21.019Z,0.18
2022-11-22T23:56:48.957Z,0.10
2022-11-22T23:59:18.455Z,0.02
